( ! ) Deprecated: mysql_connect(): The mysql extension is deprecated and will be removed in the future: use mysqli or PDO instead in C:\wamp64\www\include\classes\db.php on line 23
Call Stack
#TimeMemoryFunctionLocation
10.0250251240{main}( )...\reportostiaoasi.php:0
20.1330510536include( 'C:\wamp64\www\include\webaccess.php' )...\reportostiaoasi.php:4
30.1330510928Database->connect( )...\webaccess.php:4
40.1330511216mysql_connect ( )...\db.php:23

( ! ) Deprecated: mysql_connect(): The mysql extension is deprecated and will be removed in the future: use mysqli or PDO instead in C:\wamp64\www\include\classes\db.php on line 23
Call Stack
#TimeMemoryFunctionLocation
10.0250251240{main}( )...\reportostiaoasi.php:0
20.2430572232Database->connect( )...\reportostiaoasi.php:14
30.2430572520mysql_connect ( )...\db.php:23
Ora Direzione Vento Velocita' Vento Media Vento Raffica Max. Temperatura Wind Chill Pioggia Pressione
04:21:260 °(N)5.9 Kts6.86 Kts15.2 Kts15.1 °C14.64 °C0 mm1028.4 Hpa
04:02:220 °(N)10.7 Kts6.63 Kts15.2 Kts15.1 °C13.95 °C0 mm1027.3 Hpa
03:41:080 °(N)7.7 Kts6.2 Kts15.2 Kts15.1 °C14.32 °C0 mm1028.3 Hpa
03:22:030 °(N)7.4 Kts6.23 Kts15.2 Kts15.3 °C14.67 °C0 mm1027.8 Hpa
03:02:5332 °(NNE)4.3 Kts3.93 Kts15.2 Kts15.3 °C15.26 °C0 mm1028.9 Hpa
02:41:380 °(N)6 Kts5.83 Kts15.2 Kts15.5 °C15.12 °C0 mm1029.4 Hpa
02:22:320 °(N)5.7 Kts5.3 Kts15.2 Kts15.6 °C15.35 °C0 mm1027.1 Hpa
02:01:120 °(N)3.7 Kts5.63 Kts15.2 Kts16 °C16.33 °C0 mm1026.6 Hpa
01:42:040 °(N)5.5 Kts6.93 Kts15.2 Kts16.1 °C15.94 °C0 mm1025.5 Hpa
01:23:020 °(N)5.3 Kts7.73 Kts15.2 Kts16.2 °C16.12 °C0 mm1027.1 Hpa
01:01:400 °(N)6.5 Kts7.4 Kts15.2 Kts16.5 °C16.28 °C0 mm1027.1 Hpa
00:42:380 °(N)12.1 Kts10.76 Kts15.2 Kts16.7 °C15.76 °C0 mm1027.1 Hpa
00:21:330 °(N)9.6 Kts8.43 Kts10.9 Kts16.6 °C15.97 °C0 mm1027.1 Hpa
00:02:230 °(N)4.6 Kts5.66 Kts6.3 Kts16.7 °C16.85 °C0 mm1027.6 Hpa
23:41:060 °(N)4.1 Kts5.46 Kts17.3 Kts16.8 °C17.11 °C0 mm1027.6 Hpa
23:22:030 °(N)6.9 Kts6.5 Kts17.3 Kts17 °C16.78 °C0 mm1027.1 Hpa
23:02:560 °(N)5.4 Kts5.53 Kts17.3 Kts17.5 °C17.66 °C0 mm1026 Hpa
22:41:410 °(N)4.6 Kts5.56 Kts17.3 Kts17.8 °C18.15 °C0 mm1027.6 Hpa
22:22:410 °(N)8.8 Kts7.96 Kts17.3 Kts18.1 °C17.87 °C0 mm1026 Hpa
22:01:240 °(N)7.7 Kts6.83 Kts17.3 Kts18.3 °C18.24 °C0 mm1027.6 Hpa
21:42:160 °(N)6.4 Kts6.7 Kts17.3 Kts18.8 °C19.05 °C0 mm1026 Hpa
21:21:050 °(N)4.5 Kts4.7 Kts17.3 Kts19.3 °C19.95 °C0 mm1026.5 Hpa
21:01:594 °(N)7.8 Kts6.66 Kts17.3 Kts19.7 °C19.95 °C0 mm1024.2 Hpa
20:42:550 °(N)3.5 Kts5.63 Kts17.3 Kts20.2 °C21.2 °C0 mm1026 Hpa
Copyright www.vedetta.org